sensor_id;sensor_type;location;lat;lon;timestamp;temperature;humidity
15048;DHT22;7621;52.350;13.308;2023-03-14T04:46:03;12.40;99.90
15048;DHT22;7621;52.350;13.308;2023-03-14T04:48:28;12.30;99.90
15048;DHT22;7621;52.350;13.308;2023-03-14T04:50:54;12.40;99.90
15048;DHT22;7621;52.350;13.308;2023-03-14T04:53:20;12.40;99.90
15048;DHT22;7621;52.350;13.308;2023-03-14T04:55:54;12.40;99.90
15048;DHT22;7621;52.350;13.308;2023-03-14T04:58:20;12.40;99.90
15048;DHT22;7621;52.350;13.308;2023-03-14T05:00:46;12.40;99.90
15048;DHT22;7621;52.350;13.308;2023-03-14T05:03:14;12.40;99.90
15048;DHT22;7621;52.350;13.308;2023-03-14T05:05:40;12.40;99.90
15048;DHT22;7621;52.350;13.308;2023-03-14T05:08:06;12.40;99.90
15048;DHT22;7621;52.350;13.308;2023-03-14T05:10:31;12.40;99.90
15048;DHT22;7621;52.350;13.308;2023-03-14T05:12:57;12.40;99.90
15048;DHT22;7621;52.350;13.308;2023-03-14T05:15:22;12.30;99.90
15048;DHT22;7621;52.350;13.308;2023-03-14T05:17:48;12.40;99.90
15048;DHT22;7621;52.350;13.308;2023-03-14T05:20:14;12.40;99.90
15048;DHT22;7621;52.350;13.308;2023-03-14T05:22:40;12.40;99.90
15048;DHT22;7621;52.350;13.308;2023-03-14T05:25:07;12.40;99.80
15048;DHT22;7621;52.350;13.308;2023-03-14T05:27:33;12.40;99.60
15048;DHT22;7621;52.350;13.308;2023-03-14T05:29:58;12.40;99.50
15048;DHT22;7621;52.350;13.308;2023-03-14T05:32:24;12.40;99.40
15048;DHT22;7621;52.350;13.308;2023-03-14T05:34:49;12.40;99.40
15048;DHT22;7621;52.350;13.308;2023-03-14T05:37:15;12.40;99.30
15048;DHT22;7621;52.350;13.308;2023-03-14T05:39:41;12.40;99.10
15048;DHT22;7621;52.350;13.308;2023-03-14T05:42:06;12.40;99.00
15048;DHT22;7621;52.350;13.308;2023-03-14T05:44:32;12.40;98.80
15048;DHT22;7621;52.350;13.308;2023-03-14T05:46:57;12.40;98.80
15048;DHT22;7621;52.350;13.308;2023-03-14T05:49:23;12.40;98.80
15048;DHT22;7621;52.350;13.308;2023-03-14T05:51:48;12.40;98.70
15048;DHT22;7621;52.350;13.308;2023-03-14T05:54:14;12.40;98.50
15048;DHT22;7621;52.350;13.308;2023-03-14T05:56:39;12.40;98.40
15048;DHT22;7621;52.350;13.308;2023-03-14T05:59:05;12.50;98.10
15048;DHT22;7621;52.350;13.308;2023-03-14T06:01:32;12.50;98.10
15048;DHT22;7621;52.350;13.308;2023-03-14T06:03:58;12.50;97.90
15048;DHT22;7621;52.350;13.308;2023-03-14T06:06:23;12.50;97.90
15048;DHT22;7621;52.350;13.308;2023-03-14T06:08:49;12.50;97.90
15048;DHT22;7621;52.350;13.308;2023-03-14T06:11:15;12.60;97.90
15048;DHT22;7621;52.350;13.308;2023-03-14T06:13:40;12.50;98.00
15048;DHT22;7621;52.350;13.308;2023-03-14T06:16:06;12.60;97.50
15048;DHT22;7621;52.350;13.308;2023-03-14T06:18:32;12.60;97.50
15048;DHT22;7621;52.350;13.308;2023-03-14T06:20:57;12.70;97.40
15048;DHT22;7621;52.350;13.308;2023-03-14T06:23:23;12.70;97.30
15048;DHT22;7621;52.350;13.308;2023-03-14T06:25:49;12.70;97.20
15048;DHT22;7621;52.350;13.308;2023-03-14T06:28:15;12.80;97.00
15048;DHT22;7621;52.350;13.308;2023-03-14T06:30:41;12.80;96.90
15048;DHT22;7621;52.350;13.308;2023-03-14T06:33:06;12.80;96.80
15048;DHT22;7621;52.350;13.308;2023-03-14T06:35:32;12.80;96.80
15048;DHT22;7621;52.350;13.308;2023-03-14T15:35:09;12.20;90.60
15048;DHT22;7621;52.350;13.308;2023-03-14T15:37:35;11.40;91.70
15048;DHT22;7621;52.350;13.308;2023-03-14T15:40:01;10.90;92.40
15048;DHT22;7621;52.350;13.308;2023-03-14T15:42:28;10.50;93.10
15048;DHT22;7621;52.350;13.308;2023-03-14T15:44:54;10.10;93.40
15048;DHT22;7621;52.350;13.308;2023-03-14T15:47:19;9.80;93.90
15048;DHT22;7621;52.350;13.308;2023-03-14T15:49:45;9.50;94.00
15048;DHT22;7621;52.350;13.308;2023-03-14T15:52:11;9.30;94.40
15048;DHT22;7621;52.350;13.308;2023-03-14T15:54:37;9.10;94.70
15048;DHT22;7621;52.350;13.308;2023-03-14T15:57:02;9.00;95.10
15048;DHT22;7621;52.350;13.308;2023-03-14T15:59:28;8.80;95.30
15048;DHT22;7621;52.350;13.308;2023-03-14T16:01:54;8.70;95.50
15048;DHT22;7621;52.350;13.308;2023-03-14T16:04:19;8.60;95.80
15048;DHT22;7621;52.350;13.308;2023-03-14T16:06:45;8.50;95.90
15048;DHT22;7621;52.350;13.308;2023-03-14T16:09:13;8.30;96.10
15048;DHT22;7621;52.350;13.308;2023-03-14T16:11:39;8.20;96.20
15048;DHT22;7621;52.350;13.308;2023-03-14T16:14:05;8.10;96.30
15048;DHT22;7621;52.350;13.308;2023-03-14T16:16:31;8.00;96.20
15048;DHT22;7621;52.350;13.308;2023-03-14T16:18:57;7.70;95.80
15048;DHT22;7621;52.350;13.308;2023-03-14T16:21:23;7.50;95.80
15048;DHT22;7621;52.350;13.308;2023-03-14T16:23:48;7.20;95.70
15048;DHT22;7621;52.350;13.308;2023-03-14T16:26:16;7.00;95.60
15048;DHT22;7621;52.350;13.308;2023-03-14T16:28:43;6.80;95.50
15048;DHT22;7621;52.350;13.308;2023-03-14T16:31:14;6.60;95.50
15048;DHT22;7621;52.350;13.308;2023-03-14T16:33:41;6.30;95.50
15048;DHT22;7621;52.350;13.308;2023-03-14T16:36:09;6.10;95.70
15048;DHT22;7621;52.350;13.308;2023-03-14T16:38:38;6.00;95.80
15048;DHT22;7621;52.350;13.308;2023-03-14T16:41:15;5.90;96.20
15048;DHT22;7621;52.350;13.308;2023-03-14T16:43:41;5.80;96.40
15048;DHT22;7621;52.350;13.308;2023-03-14T16:46:11;5.70;96.50
15048;DHT22;7621;52.350;13.308;2023-03-14T16:48:38;5.70;96.70
15048;DHT22;7621;52.350;13.308;2023-03-14T16:51:04;5.60;96.80
15048;DHT22;7621;52.350;13.308;2023-03-14T16:53:29;5.60;97.00
15048;DHT22;7621;52.350;13.308;2023-03-14T16:55:55;5.50;97.20
15048;DHT22;7621;52.350;13.308;2023-03-14T16:58:21;5.50;97.50
15048;DHT22;7621;52.350;13.308;2023-03-14T17:00:47;5.50;97.60
15048;DHT22;7621;52.350;13.308;2023-03-14T17:03:13;5.40;97.60
15048;DHT22;7621;52.350;13.308;2023-03-14T17:05:47;5.40;97.80
15048;DHT22;7621;52.350;13.308;2023-03-14T17:08:13;5.40;98.10
15048;DHT22;7621;52.350;13.308;2023-03-14T17:10:39;5.40;98.30
15048;DHT22;7621;52.350;13.308;2023-03-14T17:13:05;5.40;98.60
15048;DHT22;7621;52.350;13.308;2023-03-14T17:15:30;5.40;98.70
15048;DHT22;7621;52.350;13.308;2023-03-14T17:17:56;5.40;98.80
15048;DHT22;7621;52.350;13.308;2023-03-14T17:20:21;5.40;99.10
15048;DHT22;7621;52.350;13.308;2023-03-14T17:22:47;5.40;99.30
15048;DHT22;7621;52.350;13.308;2023-03-14T17:25:12;5.40;99.50
15048;DHT22;7621;52.350;13.308;2023-03-14T17:27:38;5.40;99.70
15048;DHT22;7621;52.350;13.308;2023-03-14T17:30:05;5.40;99.90
15048;DHT22;7621;52.350;13.308;2023-03-14T17:32:30;5.40;99.90
15048;DHT22;7621;52.350;13.308;2023-03-14T17:34:56;5.40;99.90
15048;DHT22;7621;52.350;13.308;2023-03-14T17:37:21;5.40;99.90
15048;DHT22;7621;52.350;13.308;2023-03-14T17:39:47;5.40;99.90
15048;DHT22;7621;52.350;13.308;2023-03-14T17:42:12;5.40;99.90
15048;DHT22;7621;52.350;13.308;2023-03-14T17:44:38;5.40;99.90
15048;DHT22;7621;52.350;13.308;2023-03-14T17:47:04;5.40;99.90
15048;DHT22;7621;52.350;13.308;2023-03-14T17:49:29;5.40;99.90
15048;DHT22;7621;52.350;13.308;2023-03-14T17:51:55;5.40;99.90
15048;DHT22;7621;52.350;13.308;2023-03-14T17:54:20;5.40;99.90
15048;DHT22;7621;52.350;13.308;2023-03-14T17:56:46;5.40;99.90
15048;DHT22;7621;52.350;13.308;2023-03-14T17:59:13;5.40;99.90
15048;DHT22;7621;52.350;13.308;2023-03-14T18:01:39;5.40;99.90
15048;DHT22;7621;52.350;13.308;2023-03-14T18:04:05;5.50;99.90
15048;DHT22;7621;52.350;13.308;2023-03-14T18:06:31;5.50;99.90
15048;DHT22;7621;52.350;13.308;2023-03-14T18:08:58;5.50;99.90
15048;DHT22;7621;52.350;13.308;2023-03-14T18:11:25;5.50;99.90
15048;DHT22;7621;52.350;13.308;2023-03-14T18:13:50;5.60;99.90
15048;DHT22;7621;52.350;13.308;2023-03-14T18:16:16;5.60;99.90
15048;DHT22;7621;52.350;13.308;2023-03-14T18:18:43;5.60;99.90
15048;DHT22;7621;52.350;13.308;2023-03-14T18:21:09;5.60;99.90
15048;DHT22;7621;52.350;13.308;2023-03-14T18:23:36;5.60;99.90
15048;DHT22;7621;52.350;13.308;2023-03-14T18:26:03;5.60;99.90
15048;DHT22;7621;52.350;13.308;2023-03-14T18:28:29;5.60;99.90
15048;DHT22;7621;52.350;13.308;2023-03-14T18:31:05;5.60;99.90
15048;DHT22;7621;52.350;13.308;2023-03-14T18:33:30;5.60;99.90
15048;DHT22;7621;52.350;13.308;2023-03-14T18:36:05;5.50;99.90
15048;DHT22;7621;52.350;13.308;2023-03-14T18:38:32;5.60;99.90
15048;DHT22;7621;52.350;13.308;2023-03-14T18:41:10;5.60;99.90
15048;DHT22;7621;52.350;13.308;2023-03-14T18:43:37;5.50;99.90
15048;DHT22;7621;52.350;13.308;2023-03-14T18:46:02;5.50;99.90
15048;DHT22;7621;52.350;13.308;2023-03-14T18:48:29;5.50;99.90
15048;DHT22;7621;52.350;13.308;2023-03-14T18:50:54;5.50;99.90
15048;DHT22;7621;52.350;13.308;2023-03-14T18:53:21;5.50;99.90
15048;DHT22;7621;52.350;13.308;2023-03-14T18:55:53;5.40;99.90
15048;DHT22;7621;52.350;13.308;2023-03-14T18:58:19;5.40;99.90
15048;DHT22;7621;52.350;13.308;2023-03-14T19:00:50;5.40;99.90
15048;DHT22;7621;52.350;13.308;2023-03-14T19:03:15;5.40;99.90
15048;DHT22;7621;52.350;13.308;2023-03-14T19:05:44;5.40;99.90
15048;DHT22;7621;52.350;13.308;2023-03-14T19:08:09;5.40;99.90
15048;DHT22;7621;52.350;13.308;2023-03-14T19:10:38;5.40;99.90
15048;DHT22;7621;52.350;13.308;2023-03-14T19:13:04;5.40;99.90
15048;DHT22;7621;52.350;13.308;2023-03-14T19:15:30;5.40;99.90
15048;DHT22;7621;52.350;13.308;2023-03-14T19:17:55;5.40;99.90
15048;DHT22;7621;52.350;13.308;2023-03-14T19:20:21;5.40;99.90
15048;DHT22;7621;52.350;13.308;2023-03-14T19:22:46;5.40;99.90
15048;DHT22;7621;52.350;13.308;2023-03-14T19:25:31;5.40;99.90
15048;DHT22;7621;52.350;13.308;2023-03-14T19:27:57;5.40;99.90
15048;DHT22;7621;52.350;13.308;2023-03-14T19:30:23;5.40;99.90
15048;DHT22;7621;52.350;13.308;2023-03-14T19:32:49;5.40;99.90
15048;DHT22;7621;52.350;13.308;2023-03-14T19:35:15;5.40;99.90
15048;DHT22;7621;52.350;13.308;2023-03-14T19:37:40;5.30;99.90
15048;DHT22;7621;52.350;13.308;2023-03-14T19:40:07;5.30;99.90
15048;DHT22;7621;52.350;13.308;2023-03-14T19:42:34;5.30;99.90
15048;DHT22;7621;52.350;13.308;2023-03-14T19:45:00;5.30;99.90
15048;DHT22;7621;52.350;13.308;2023-03-14T19:47:27;5.30;99.90
15048;DHT22;7621;52.350;13.308;2023-03-14T19:49:53;5.30;99.90
15048;DHT22;7621;52.350;13.308;2023-03-14T19:52:19;5.30;99.90
15048;DHT22;7621;52.350;13.308;2023-03-14T19:54:44;5.20;99.90
15048;DHT22;7621;52.350;13.308;2023-03-14T19:57:10;5.20;99.90
15048;DHT22;7621;52.350;13.308;2023-03-14T19:59:36;5.20;99.90
15048;DHT22;7621;52.350;13.308;2023-03-14T20:02:02;5.20;99.90
15048;DHT22;7621;52.350;13.308;2023-03-14T20:04:27;5.20;99.90
15048;DHT22;7621;52.350;13.308;2023-03-14T20:06:53;5.10;99.90
15048;DHT22;7621;52.350;13.308;2023-03-14T20:09:19;5.10;99.90
15048;DHT22;7621;52.350;13.308;2023-03-14T20:11:45;5.00;99.90
15048;DHT22;7621;52.350;13.308;2023-03-14T20:14:11;5.00;99.90
15048;DHT22;7621;52.350;13.308;2023-03-14T20:16:39;4.90;99.90
15048;DHT22;7621;52.350;13.308;2023-03-14T20:19:14;4.90;99.90
15048;DHT22;7621;52.350;13.308;2023-03-14T20:21:40;4.80;99.90
15048;DHT22;7621;52.350;13.308;2023-03-14T20:24:07;4.80;99.90
15048;DHT22;7621;52.350;13.308;2023-03-14T20:26:33;4.70;99.90
15048;DHT22;7621;52.350;13.308;2023-03-14T20:29:00;4.70;99.90
15048;DHT22;7621;52.350;13.308;2023-03-14T20:31:26;4.70;99.90
15048;DHT22;7621;52.350;13.308;2023-03-14T20:33:52;4.60;99.90
15048;DHT22;7621;52.350;13.308;2023-03-14T20:36:17;4.60;99.90
15048;DHT22;7621;52.350;13.308;2023-03-14T20:38:43;4.60;99.90
15048;DHT22;7621;52.350;13.308;2023-03-14T20:41:08;4.50;99.90
15048;DHT22;7621;52.350;13.308;2023-03-14T20:43:57;4.50;99.90
15048;DHT22;7621;52.350;13.308;2023-03-14T20:46:23;4.50;99.90
15048;DHT22;7621;52.350;13.308;2023-03-14T20:48:48;4.40;99.90
15048;DHT22;7621;52.350;13.308;2023-03-14T20:51:14;4.40;99.90
15048;DHT22;7621;52.350;13.308;2023-03-14T20:53:40;4.40;99.90
15048;DHT22;7621;52.350;13.308;2023-03-14T20:56:07;4.40;99.90
15048;DHT22;7621;52.350;13.308;2023-03-14T20:58:32;4.40;99.90
15048;DHT22;7621;52.350;13.308;2023-03-14T21:00:59;4.40;99.90
15048;DHT22;7621;52.350;13.308;2023-03-14T21:03:26;4.40;99.90
15048;DHT22;7621;52.350;13.308;2023-03-14T21:05:51;4.40;99.90
15048;DHT22;7621;52.350;13.308;2023-03-14T21:08:20;4.40;99.90
15048;DHT22;7621;52.350;13.308;2023-03-14T21:10:47;4.30;99.90
15048;DHT22;7621;52.350;13.308;2023-03-14T21:13:13;4.30;99.90
15048;DHT22;7621;52.350;13.308;2023-03-14T21:15:38;4.20;99.90
15048;DHT22;7621;52.350;13.308;2023-03-14T21:18:04;4.20;99.90
15048;DHT22;7621;52.350;13.308;2023-03-14T21:20:35;4.20;99.90
15048;DHT22;7621;52.350;13.308;2023-03-14T21:23:02;4.20;99.90
15048;DHT22;7621;52.350;13.308;2023-03-14T21:25:29;4.10;99.90
15048;DHT22;7621;52.350;13.308;2023-03-14T21:27:55;4.10;99.90
15048;DHT22;7621;52.350;13.308;2023-03-14T21:30:21;4.10;99.90
15048;DHT22;7621;52.350;13.308;2023-03-14T21:32:46;4.00;99.90
15048;DHT22;7621;52.350;13.308;2023-03-14T21:35:12;4.00;99.90
15048;DHT22;7621;52.350;13.308;2023-03-14T21:37:37;4.00;99.90
